Alma, Michigan
Current Conditions -  °F | °C
As of 4:51 PM on Monday 20 Oct 2014 (Local Time) from KAMN Reporting Station
Overcast Overcast  
Wind Chill: 58°   Ceiling: 6500
Heat Index: 58°   Visibility: 10mi
Dew Point: 47°   Wind: 9mph
Humidity: 67%   Direction: 320°NW
Pressure: 29.79"   Gusts: NA
Location:  43.38°N, 84.66°W
Report Text: KAMN 202051Z AUTO 32008KT 10SM SCT032 SCT041 OVC065 15/09 A2979 RMK AO2 T01460086
Loading
Personal Weather Stations






























Interactive Weather Map
Tropical Storm Tracking
New forecast layout! Learn more

10-Day Weather Forecast

Advertisements
Track Severe Weather on mobile